Laramie, Wyoming
Current Conditions -  °F | °C
As of 6:53 PM on Wednesday 26 Nov 2014 (Local Time) from KLAR Reporting Station
Clear Clear  
Wind Chill: 29°   Ceiling: Unl
Heat Index: 40°   Visibility: 10mi
Dew Point: 26°   Wind: 25mph
Humidity: 58%   Direction: 270°W
Pressure: 30.21"   Gusts: 32mph
Location:  41.31°N, 105.59°W
Report Text: KLAR 270153Z AUTO 27022G28KT 10SM CLR 04/M03 A3021 RMK AO2 PK WND 28029/0106 SLP233 T00441033
Loading
Personal Weather Stations






























Interactive Weather Map New forecast layout! Learn more

10-Day Weather Forecast

Advertisements
Track Severe Weather on mobile